HTIR/IRI METAR and TAF weather

Enter ICAO airport designator
Station Type Date Time Source
HTIR METAR 2020/07/04 09:00 UTC NOAA

HTIR 040900Z 18012KT 9999 FEW024 22/08 Q1023


Station Type Date Time Source
HTIR Decoded METAR 2020/07/04 09:00 UTC NOAA

Iringa, Tanzania (HTIR) 07-40S 035-45E 1428M
Jul 04, 2020 - 05:00 AM EDT / 2020.07.04 0900 UTC
Wind: from the S (180 degrees) at 14 MPH (12 KT):0
Visibility: greater than 7 mile(s):0
Sky conditions: mostly clear
Temperature: 71 F (22 C)
Dew Point: 46 F (8 C)
Relative Humidity: 40%
Pressure (altimeter): 30.21 in. Hg (1023 hPa)
ob: HTIR 040900Z 18012KT 9999 FEW024 22/08 Q1023
cycle: 9

Station Type Date Time Source
HTIR TAF UTC NOAA

Error!

Example: see airport list